Time;durP1;ratioP1;P1;durP2;ratioP2;P2;SDS_P1;SDS_P2;PMS_P1;PMS_P2;Temp;Humidity;BMP_temperature;BMP_pressure;BME280_temperature;BME280_humidity;BME280_pressure;Samples;Min_cycle;Max_cycle;Signal;HPM_P1;HPM_P2
2023/05/26 00:01:18;;;;;;;4.45;4.05;;;19.50;68.30;;;;;;5012376;28;20242;-67
2023/05/26 00:03:44;;;;;;;5.10;4.60;;;19.50;68.40;;;;;;5013527;28;20188;-67
2023/05/26 00:06:11;;;;;;;6.53;4.45;;;19.50;68.30;;;;;;5013278;28;20215;-66
2023/05/26 00:08:38;;;;;;;5.20;4.60;;;19.50;68.30;;;;;;4993608;28;20576;-67
2023/05/26 00:11:05;;;;;;;4.65;4.25;;;19.50;68.30;;;;;;4994632;28;20224;-67
2023/05/26 00:13:31;;;;;;;4.60;4.15;;;19.50;68.20;;;;;;4996856;28;20306;-67
2023/05/26 00:15:57;;;;;;;5.07;4.60;;;19.50;68.10;;;;;;5013229;28;20327;-68
2023/05/26 00:18:26;;;;;;;5.00;4.50;;;19.50;68.20;;;;;;5012938;28;20199;-67
2023/05/26 00:20:55;;;;;;;4.68;4.28;;;19.50;68.20;;;;;;4993947;28;20216;-66
2023/05/26 00:23:22;;;;;;;4.50;4.10;;;19.50;68.20;;;;;;5013243;28;20196;-67
2023/05/26 00:25:49;;;;;;;4.75;4.35;;;19.50;68.20;;;;;;4996623;28;20192;-66
2023/05/26 00:28:16;;;;;;;5.00;4.30;;;19.50;68.20;;;;;;5012776;28;20652;-66
2023/05/26 00:30:41;;;;;;;4.78;4.38;;;19.50;68.30;;;;;;5013014;28;20200;-65
2023/05/26 00:33:07;;;;;;;5.10;4.60;;;19.50;68.20;;;;;;4996614;28;20220;-66
2023/05/26 00:35:33;;;;;;;4.35;3.95;;;19.50;68.20;;;;;;5012800;28;20195;-67
2023/05/26 00:37:59;;;;;;;4.50;4.10;;;19.50;68.20;;;;;;4993074;28;20200;-66
2023/05/26 00:40:25;;;;;;;5.07;4.60;;;19.50;68.20;;;;;;5013093;28;20193;-67
2023/05/26 00:42:51;;;;;;;4.97;3.95;;;19.50;68.20;;;;;;5021291;28;20198;-67
2023/05/26 00:45:17;;;;;;;5.50;4.60;;;19.50;68.20;;;;;;5011682;28;20192;-67
2023/05/26 00:47:42;;;;;;;4.43;4.03;;;19.50;68.10;;;;;;5012731;28;20211;-68
2023/05/26 00:50:12;;;;;;;4.90;4.10;;;19.50;68.10;;;;;;4996138;28;20192;-66
2023/05/26 00:52:40;;;;;;;4.80;4.38;;;19.50;68.10;;;;;;5012807;28;20648;-66
2023/05/26 00:55:08;;;;;;;5.90;4.10;;;19.50;68.10;;;;;;5028328;28;20258;-68
2023/05/26 00:57:34;;;;;;;5.00;4.45;;;19.50;68.10;;;;;;5005335;28;20200;-66
2023/05/26 01:00:00;;;;;;;4.90;4.38;;;19.50;68.00;;;;;;5012863;28;20184;-67
2023/05/26 01:02:28;;;;;;;5.05;4.50;;;19.50;68.00;;;;;;4992743;28;20251;-67
2023/05/26 01:04:54;;;;;;;4.40;4.00;;;19.50;68.00;;;;;;4992180;28;20188;-66
2023/05/26 01:07:21;;;;;;;4.80;4.40;;;19.50;67.80;;;;;;5012259;28;20238;-68
2023/05/26 01:09:51;;;;;;;4.78;4.38;;;19.50;67.80;;;;;;4995859;28;20235;-67
2023/05/26 01:12:53;;;;;;;4.97;3.97;;;19.50;68.00;;;;;;4994714;28;20193;-67
2023/05/26 01:15:34;;;;;;;4.30;3.90;;;19.50;68.00;;;;;;4995155;28;20561;-66
2023/05/26 01:18:55;;;;;;;4.35;4.00;;;19.50;68.00;;;;;;4992655;28;20216;-67
2023/05/26 01:21:24;;;;;;;4.90;4.38;;;19.50;68.00;;;;;;4999185;28;20200;-67
2023/05/26 01:24:37;;;;;;;4.57;4.18;;;19.50;67.90;;;;;;4992477;28;20193;-67
2023/05/26 01:27:44;;;;;;;4.53;4.20;;;19.50;67.90;;;;;;5008775;28;20639;-67
2023/05/26 01:30:12;;;;;;;4.45;4.05;;;19.50;67.90;;;;;;4992291;28;20231;-67
2023/05/26 01:32:37;;;;;;;4.65;4.25;;;19.40;67.80;;;;;;4995901;28;20211;-67
2023/05/26 01:35:04;;;;;;;4.80;4.40;;;19.50;67.90;;;;;;4995634;28;20184;-66
2023/05/26 01:37:30;;;;;;;4.45;4.05;;;19.50;67.90;;;;;;5012036;28;20215;-67
2023/05/26 01:39:56;;;;;;;4.65;4.10;;;19.50;67.90;;;;;;4992410;28;20185;-67
2023/05/26 01:42:32;;;;;;;4.75;4.35;;;19.50;67.90;;;;;;4994874;28;20184;-67
2023/05/26 01:45:07;;;;;;;4.30;3.90;;;19.50;67.90;;;;;;4992527;28;20195;-67
2023/05/26 01:47:35;;;;;;;5.47;4.28;;;19.50;67.90;;;;;;4995348;28;20269;-67
2023/05/26 01:50:05;;;;;;;4.40;4.00;;;19.50;68.00;;;;;;4995240;28;20188;-68
2023/05/26 01:52:33;;;;;;;4.35;4.00;;;19.40;67.90;;;;;;4992329;28;20208;-66
2023/05/26 01:55:07;;;;;;;4.38;4.07;;;19.50;68.00;;;;;;4991909;28;20188;-66
2023/05/26 01:57:35;;;;;;;3.97;3.67;;;19.40;67.90;;;;;;5010995;28;20203;-67
2023/05/26 02:00:03;;;;;;;3.90;3.60;;;19.50;68.00;;;;;;5011563;28;20226;-67
2023/05/26 02:02:40;;;;;;;4.70;4.30;;;19.50;68.00;;;;;;5026471;28;20203;-67
2023/05/26 02:05:07;;;;;;;4.75;4.35;;;19.50;68.00;;;;;;4995014;28;20184;-67
2023/05/26 02:07:34;;;;;;;4.53;4.20;;;19.50;67.90;;;;;;4994848;28;20196;-67
2023/05/26 02:10:01;;;;;;;4.60;4.20;;;19.50;67.90;;;;;;4991798;28;20192;-68
2023/05/26 02:12:27;;;;;;;4.85;4.45;;;19.40;67.90;;;;;;4994475;28;20751;-67
2023/05/26 02:14:52;;;;;;;4.50;3.97;;;19.40;67.90;;;;;;5011391;28;20232;-67
2023/05/26 02:17:18;;;;;;;4.57;4.18;;;19.50;68.00;;;;;;5011309;28;20274;-65
2023/05/26 02:19:44;;;;;;;4.57;4.18;;;19.50;67.90;;;;;;4995010;28;20180;-66
2023/05/26 02:22:12;;;;;;;4.45;4.05;;;19.50;67.90;;;;;;4994986;28;20199;-67
2023/05/26 02:24:39;;;;;;;3.92;3.63;;;19.40;67.80;;;;;;4991662;28;20192;-66
2023/05/26 02:27:05;;;;;;;4.72;4.15;;;19.50;68.00;;;;;;5007511;28;20237;-67
2023/05/26 02:29:30;;;;;;;4.50;4.10;;;19.50;68.00;;;;;;5011098;28;20180;-67
2023/05/26 02:31:56;;;;;;;4.75;4.35;;;19.50;68.00;;;;;;5011236;28;20601;-68
2023/05/26 02:34:22;;;;;;;4.60;4.20;;;19.40;67.90;;;;;;5011049;28;20216;-66
2023/05/26 02:36:49;;;;;;;4.13;3.72;;;19.50;68.00;;;;;;4994628;28;20212;-67
2023/05/26 02:39:16;;;;;;;4.57;4.18;;;19.40;67.90;;;;;;4994697;28;20192;-66
2023/05/26 02:41:41;;;;;;;4.72;4.32;;;19.40;67.90;;;;;;4990606;28;20275;-67
2023/05/26 02:44:08;;;;;;;4.45;4.05;;;19.40;67.90;;;;;;5007474;28;20188;-67
2023/05/26 02:46:33;;;;;;;4.25;3.90;;;19.50;68.00;;;;;;5019224;28;20212;-67
2023/05/26 02:49:02;;;;;;;4.50;3.80;;;19.40;67.90;;;;;;5011819;28;20208;-67
2023/05/26 02:51:28;;;;;;;4.82;3.88;;;19.40;67.80;;;;;;5001891;28;20200;-66
2023/05/26 02:53:53;;;;;;;4.43;4.03;;;19.40;67.80;;;;;;4991008;28;20209;-67
2023/05/26 02:56:20;;;;;;;4.53;4.13;;;19.40;67.80;;;;;;4992714;28;20216;-67
2023/05/26 02:58:46;;;;;;;4.20;3.90;;;19.40;67.80;;;;;;4994284;28;20311;-67
2023/05/26 03:01:12;;;;;;;4.47;4.07;;;19.40;67.80;;;;;;5010736;28;20200;-67
2023/05/26 03:03:38;;;;;;;4.90;4.50;;;19.40;67.80;;;;;;4994414;28;20188;-67
2023/05/26 03:06:04;;;;;;;4.47;4.13;;;19.40;67.90;;;;;;5010618;28;20188;-67
2023/05/26 03:08:30;;;;;;;4.32;3.92;;;19.40;67.80;;;;;;5011913;28;20188;-66
2023/05/26 03:10:57;;;;;;;4.75;4.35;;;19.40;67.80;;;;;;4997989;28;20192;-68
2023/05/26 03:13:23;;;;;;;4.05;3.75;;;19.40;67.80;;;;;;5014127;28;20212;-67
2023/05/26 03:15:49;;;;;;;4.35;3.95;;;19.40;67.80;;;;;;4994878;28;20196;-66
2023/05/26 03:18:16;;;;;;;4.35;3.90;;;19.40;67.80;;;;;;4995359;28;20188;-66
2023/05/26 03:20:46;;;;;;;5.22;4.72;;;19.40;67.80;;;;;;4994626;28;20185;-66
2023/05/26 03:23:18;;;;;;;4.53;4.13;;;19.40;67.80;;;;;;4994676;28;20184;-66
2023/05/26 03:25:45;;;;;;;4.40;4.00;;;19.40;67.80;;;;;;5013952;28;20238;-66
2023/05/26 03:28:11;;;;;;;4.38;3.97;;;19.40;67.80;;;;;;5013725;28;20242;-66
2023/05/26 03:30:38;;;;;;;4.70;4.25;;;19.40;67.80;;;;;;5014015;28;20180;-67
2023/05/26 03:33:04;;;;;;;4.78;4.38;;;19.40;67.80;;;;;;5013912;28;20216;-68
2023/05/26 03:35:31;;;;;;;3.83;3.53;;;19.40;67.80;;;;;;5013709;28;20184;-67
2023/05/26 03:37:56;;;;;;;4.70;4.30;;;19.50;67.90;;;;;;4997420;28;20208;-67
2023/05/26 03:40:22;;;;;;;5.07;4.68;;;19.40;67.80;;;;;;4995881;28;20185;-68
2023/05/26 03:42:48;;;;;;;4.43;4.03;;;19.40;67.80;;;;;;4997507;28;20298;-67
2023/05/26 03:45:15;;;;;;;4.30;3.88;;;19.40;67.80;;;;;;4997744;28;20246;-67
2023/05/26 03:47:42;;;;;;;4.80;4.25;;;19.40;67.80;;;;;;5013450;28;20200;-67
2023/05/26 03:50:08;;;;;;;4.68;4.28;;;19.40;67.80;;;;;;4997289;28;20192;-67
2023/05/26 03:52:36;;;;;;;4.32;3.85;;;19.40;67.80;;;;;;4997328;28;20223;-67
2023/05/26 03:55:03;;;;;;;3.92;3.50;;;19.40;67.80;;;;;;5013781;28;20223;-67
2023/05/26 03:57:30;;;;;;;4.35;3.95;;;19.40;67.80;;;;;;5013293;28;20252;-66
2023/05/26 03:59:55;;;;;;;4.85;4.20;;;19.40;67.70;;;;;;4997512;28;20648;-67
2023/05/26 04:02:22;;;;;;;4.32;3.95;;;19.40;67.70;;;;;;4997359;28;20195;-67
2023/05/26 04:04:48;;;;;;;4.72;4.32;;;19.40;67.70;;;;;;5013543;28;20187;-66
2023/05/26 04:07:14;;;;;;;4.57;4.18;;;19.40;68.50;;;;;;5013030;28;20208;-67
2023/05/26 04:09:40;;;;;;;4.22;3.90;;;19.40;67.70;;;;;;4994066;28;20185;-66
2023/05/26 04:12:06;;;;;;;4.55;4.15;;;19.40;67.70;;;;;;5001964;28;20195;-68
2023/05/26 04:14:32;;;;;;;4.40;4.00;;;19.40;67.70;;;;;;5012531;28;20295;-67
2023/05/26 04:16:58;;;;;;;4.53;4.13;;;19.40;67.70;;;;;;5013201;28;20212;-66
2023/05/26 04:19:23;;;;;;;4.43;3.95;;;19.40;67.70;;;;;;5013970;28;20191;-67
2023/05/26 04:21:49;;;;;;;4.40;4.00;;;19.40;67.70;;;;;;5003240;28;20184;-66
2023/05/26 04:24:16;;;;;;;4.05;3.75;;;19.40;67.70;;;;;;4996804;28;20199;-67
2023/05/26 04:26:42;;;;;;;5.07;4.20;;;19.40;67.70;;;;;;5029603;28;20200;-67
2023/05/26 04:29:31;;;;;;;4.70;4.30;;;19.40;67.80;;;;;;5008578;28;20304;-67
2023/05/26 04:32:22;;;;;;;4.30;3.88;;;19.40;67.70;;;;;;5013905;28;20207;-67
2023/05/26 04:34:55;;;;;;;4.43;4.00;;;19.30;67.60;;;;;;5012997;28;20214;-67
2023/05/26 04:37:27;;;;;;;4.57;4.18;;;19.40;67.70;;;;;;4997462;28;20239;-67
2023/05/26 04:39:53;;;;;;;4.38;3.97;;;19.40;67.70;;;;;;4993393;28;20192;-67
2023/05/26 04:42:21;;;;;;;4.65;4.25;;;19.40;67.70;;;;;;5010993;28;20223;-67
2023/05/26 04:44:47;;;;;;;4.22;3.85;;;19.40;67.70;;;;;;4993138;28;20185;-67
2023/05/26 04:47:13;;;;;;;4.40;4.00;;;19.40;67.80;;;;;;5011338;28;20204;-66
2023/05/26 04:49:40;;;;;;;4.40;4.00;;;19.40;67.70;;;;;;4999461;28;20670;-67
2023/05/26 04:52:06;;;;;;;4.72;3.88;;;19.40;67.70;;;;;;4999262;28;20188;-67
2023/05/26 04:54:34;;;;;;;4.78;4.15;;;19.40;67.70;;;;;;4994125;28;20240;-67
2023/05/26 04:57:00;;;;;;;4.43;4.03;;;19.40;67.70;;;;;;5023861;28;20287;-66
2023/05/26 04:59:43;;;;;;;4.57;4.05;;;19.40;67.70;;;;;;4998272;28;20600;-67
2023/05/26 05:02:08;;;;;;;4.13;3.78;;;19.40;67.70;;;;;;5005343;28;20200;-67
2023/05/26 05:04:49;;;;;;;4.68;4.28;;;19.40;67.70;;;;;;4999323;28;20183;-66
2023/05/26 05:07:15;;;;;;;4.07;3.70;;;19.40;67.70;;;;;;5012518;28;20212;-66
2023/05/26 05:09:41;;;;;;;4.78;4.32;;;19.40;67.70;;;;;;5004350;28;20270;-68
2023/05/26 05:12:07;;;;;;;4.43;4.03;;;19.40;67.80;;;;;;5020755;28;20188;-69
2023/05/26 05:14:33;;;;;;;4.38;3.97;;;19.40;67.70;;;;;;5028453;28;20216;-68
2023/05/26 05:16:59;;;;;;;4.20;3.80;;;19.40;67.70;;;;;;4993056;28;20220;-69
2023/05/26 05:19:25;;;;;;;4.30;3.90;;;19.40;67.70;;;;;;5009555;28;20660;-69
2023/05/26 05:21:53;;;;;;;4.13;3.72;;;19.40;67.60;;;;;;5012952;28;20183;-68
2023/05/26 05:24:18;;;;;;;4.00;3.70;;;19.40;67.70;;;;;;5012126;28;20238;-68
2023/05/26 05:26:44;;;;;;;4.50;4.10;;;19.40;67.70;;;;;;4996366;28;20212;-68
2023/05/26 05:29:11;;;;;;;4.60;4.20;;;19.40;67.70;;;;;;4995798;28;20180;-68
2023/05/26 05:31:41;;;;;;;3.72;3.38;;;19.40;67.70;;;;;;4995689;28;20188;-69
2023/05/26 05:34:06;;;;;;;4.47;4.07;;;19.40;67.70;;;;;;5020185;28;20238;-69
2023/05/26 05:36:33;;;;;;;4.70;4.30;;;19.40;67.70;;;;;;5020020;28;20208;-68
2023/05/26 05:38:59;;;;;;;4.43;4.03;;;19.40;67.80;;;;;;5022407;28;20188;-67
2023/05/26 05:41:25;;;;;;;5.30;4.80;;;19.40;67.80;;;;;;5009835;28;20389;-68
2023/05/26 05:43:56;;;;;;;4.60;4.20;;;19.40;67.80;;;;;;4995732;28;20257;-69
2023/05/26 05:46:27;;;;;;;4.65;4.25;;;19.40;67.80;;;;;;5027537;28;20207;-67
2023/05/26 05:49:03;;;;;;;4.63;3.92;;;19.40;67.80;;;;;;5002395;28;20191;-68
2023/05/26 05:51:33;;;;;;;4.45;4.05;;;19.40;67.80;;;;;;5005107;28;20192;-67
2023/05/26 05:53:59;;;;;;;3.85;3.55;;;19.40;67.80;;;;;;5011525;28;20215;-68
2023/05/26 05:56:26;;;;;;;4.22;3.88;;;19.40;67.80;;;;;;4992916;28;20284;-68
2023/05/26 05:58:53;;;;;;;4.55;4.15;;;19.40;67.80;;;;;;4991745;28;20192;-67
2023/05/26 06:01:19;;;;;;;4.10;3.70;;;19.40;67.80;;;;;;4991848;28;20263;-67
2023/05/26 06:03:46;;;;;;;4.35;3.95;;;19.40;67.80;;;;;;4995368;28;20204;-67
2023/05/26 06:06:12;;;;;;;4.05;3.75;;;19.40;67.70;;;;;;4991949;28;20236;-67
2023/05/26 06:08:38;;;;;;;4.07;3.72;;;19.40;67.70;;;;;;5010761;28;20229;-67
2023/05/26 06:11:07;;;;;;;4.68;4.13;;;19.40;67.70;;;;;;5011305;28;20188;-67
2023/05/26 06:13:38;;;;;;;4.75;4.25;;;19.50;67.90;;;;;;4994416;28;20219;-67
2023/05/26 06:16:06;;;;;;;4.30;3.90;;;19.40;67.80;;;;;;4991776;28;20185;-68
2023/05/26 06:18:31;;;;;;;3.97;3.67;;;19.50;67.80;;;;;;4997841;28;20292;-67
2023/05/26 06:20:57;;;;;;;4.10;3.80;;;19.50;67.70;;;;;;4991667;28;20247;-68
2023/05/26 06:23:23;;;;;;;3.85;3.55;;;19.50;67.70;;;;;;5008336;28;20618;-67
2023/05/26 06:25:49;;;;;;;5.00;4.38;;;19.50;67.80;;;;;;4991569;28;20188;-68
2023/05/26 06:28:18;;;;;;;4.35;3.75;;;19.50;67.80;;;;;;4991362;28;20190;-68
2023/05/26 06:30:44;;;;;;;4.57;4.18;;;19.50;67.70;;;;;;4994661;28;20726;-67
2023/05/26 06:33:29;;;;;;;4.40;4.00;;;19.50;67.80;;;;;;5011223;28;20211;-68
2023/05/26 06:35:58;;;;;;;4.78;4.10;;;19.50;67.80;;;;;;4991477;28;20203;-67
2023/05/26 06:38:23;;;;;;;4.38;3.97;;;19.50;67.80;;;;;;5007706;28;20195;-68
2023/05/26 06:40:50;;;;;;;5.05;3.35;;;19.50;67.70;;;;;;4994798;28;20191;-67
2023/05/26 06:43:16;;;;;;;4.13;3.72;;;19.50;67.60;;;;;;4994385;28;20193;-68
2023/05/26 06:45:43;;;;;;;5.10;4.10;;;19.50;67.70;;;;;;5012625;28;20316;-68
2023/05/26 06:48:09;;;;;;;4.45;4.05;;;19.50;67.60;;;;;;5008727;28;20234;-68
2023/05/26 06:50:42;;;;;;;4.43;4.05;;;19.50;67.70;;;;;;5013563;28;20206;-67
2023/05/26 06:53:09;;;;;;;3.78;3.47;;;19.50;67.70;;;;;;5014621;28;20630;-68
2023/05/26 06:55:35;;;;;;;4.28;3.88;;;19.50;67.70;;;;;;4998203;28;20192;-66
2023/05/26 06:58:01;;;;;;;4.38;3.97;;;19.50;67.60;;;;;;5014329;28;20234;-66
2023/05/26 07:00:30;;;;;;;4.15;3.67;;;19.50;67.60;;;;;;4998223;28;20656;-67
2023/05/26 07:03:07;;;;;;;4.35;3.95;;;19.50;67.60;;;;;;4994851;28;20188;-67
2023/05/26 07:05:37;;;;;;;4.15;3.75;;;19.50;67.60;;;;;;4995379;28;20625;-68
2023/05/26 07:08:02;;;;;;;4.38;3.97;;;19.50;67.40;;;;;;4997852;28;20204;-68
2023/05/26 07:10:28;;;;;;;4.35;3.90;;;19.50;67.60;;;;;;5014485;28;20188;-68
2023/05/26 07:12:54;;;;;;;4.22;3.88;;;19.50;67.50;;;;;;4994940;28;20583;-68
2023/05/26 07:15:25;;;;;;;4.60;4.20;;;19.50;67.40;;;;;;4995755;28;20238;-67
2023/05/26 07:17:51;;;;;;;4.15;3.75;;;19.50;67.30;;;;;;4994274;28;20208;-68
2023/05/26 07:20:16;;;;;;;4.40;3.72;;;19.60;67.50;;;;;;5008852;28;20282;-68
2023/05/26 07:22:42;;;;;;;4.55;4.15;;;19.50;67.30;;;;;;4998760;28;20207;-68
2023/05/26 07:25:14;;;;;;;4.70;4.30;;;19.50;67.20;;;;;;4994562;28;20192;-67
2023/05/26 07:27:46;;;;;;;4.28;3.97;;;19.60;67.50;;;;;;4998029;28;20299;-67
2023/05/26 07:30:13;;;;;;;4.53;3.63;;;19.50;67.40;;;;;;5024091;28;20248;-68
2023/05/26 07:32:57;;;;;;;4.00;3.70;;;19.60;67.50;;;;;;5021203;28;20278;-67
2023/05/26 07:35:23;;;;;;;4.70;4.00;;;19.50;67.20;;;;;;5013902;28;20184;-67
2023/05/26 07:37:49;;;;;;;7.25;4.20;;;19.60;67.50;;;;;;4997646;28;20200;-68
2023/05/26 07:40:15;;;;;;;4.35;3.95;;;19.60;67.50;;;;;;4994293;28;20181;-68
2023/05/26 07:42:42;;;;;;;4.30;3.90;;;19.60;67.90;;;;;;5010401;28;20194;-68
2023/05/26 07:45:09;;;;;;;5.00;4.47;;;19.60;67.70;;;;;;5008222;28;20195;-67
2023/05/26 07:47:35;;;;;;;4.20;3.85;;;19.60;67.70;;;;;;4998348;28;20283;-67
2023/05/26 07:50:03;;;;;;;4.68;3.97;;;19.60;67.70;;;;;;5003889;28;20184;-68
2023/05/26 07:52:29;;;;;;;4.15;3.75;;;19.60;67.90;;;;;;4994513;28;20276;-67
2023/05/26 07:54:55;;;;;;;4.22;3.83;;;19.60;68.00;;;;;;4996791;28;20192;-67
2023/05/26 07:57:21;;;;;;;4.32;3.92;;;19.70;68.00;;;;;;4997132;28;20267;-68
2023/05/26 07:59:46;;;;;;;3.88;3.58;;;19.60;68.00;;;;;;4996772;28;20238;-67
2023/05/26 08:02:12;;;;;;;4.22;3.83;;;19.70;67.90;;;;;;5013617;28;20196;-67
2023/05/26 08:04:38;;;;;;;4.75;3.97;;;19.70;67.80;;;;;;5013312;28;20224;-67
2023/05/26 08:07:05;;;;;;;4.57;4.13;;;19.70;67.60;;;;;;4993760;28;20227;-68
2023/05/26 08:09:30;;;;;;;5.00;3.95;;;19.70;67.60;;;;;;5010498;28;20188;-68
2023/05/26 08:11:56;;;;;;;4.90;4.40;;;19.70;67.50;;;;;;4993741;28;20201;-67
2023/05/26 08:14:23;;;;;;;5.03;4.32;;;19.70;67.50;;;;;;4997085;28;20211;-68
2023/05/26 08:16:49;;;;;;;4.28;3.88;;;19.70;67.70;;;;;;5013418;28;20338;-68
2023/05/26 08:19:15;;;;;;;5.45;3.97;;;19.80;67.40;;;;;;5032610;28;20191;-67
2023/05/26 08:21:41;;;;;;;4.10;3.70;;;19.80;67.80;;;;;;5006551;28;20196;-68
2023/05/26 08:24:06;;;;;;;4.53;4.07;;;19.80;67.80;;;;;;4996957;28;20706;-68
2023/05/26 08:26:32;;;;;;;4.00;3.63;;;19.80;67.90;;;;;;4996634;28;20237;-68
2023/05/26 08:28:58;;;;;;;4.45;3.88;;;19.80;68.10;;;;;;4996659;28;20192;-68
2023/05/26 08:31:24;;;;;;;3.92;3.63;;;19.80;68.00;;;;;;4993697;28;20213;-68
2023/05/26 08:33:50;;;;;;;4.38;3.97;;;19.80;68.10;;;;;;4996399;28;20291;-67
2023/05/26 08:36:15;;;;;;;4.40;4.00;;;19.80;68.10;;;;;;5012682;28;20691;-68
2023/05/26 08:38:41;;;;;;;4.45;4.05;;;19.80;68.20;;;;;;4994858;28;20184;-67
2023/05/26 08:41:10;;;;;;;4.40;4.00;;;19.80;68.20;;;;;;4998566;28;20188;-67
2023/05/26 08:43:50;;;;;;;4.70;4.28;;;19.80;68.10;;;;;;5012572;28;20188;-68
2023/05/26 08:46:16;;;;;;;4.68;4.10;;;19.90;68.20;;;;;;4996367;28;20215;-68
2023/05/26 08:48:44;;;;;;;4.50;4.10;;;19.80;68.10;;;;;;4994964;28;20195;-68
2023/05/26 08:51:12;;;;;;;4.45;3.78;;;19.90;68.00;;;;;;5001337;28;20189;-68
2023/05/26 08:53:40;;;;;;;4.45;4.05;;;19.90;68.00;;;;;;4994098;28;20208;-68
2023/05/26 08:56:09;;;;;;;4.47;4.03;;;19.90;68.00;;;;;;5012620;28;20552;-68
2023/05/26 08:58:35;;;;;;;3.58;3.28;;;19.90;68.20;;;;;;5028649;28;20192;-68
2023/05/26 09:01:02;;;;;;;4.60;3.65;;;19.90;68.30;;;;;;5012356;28;20202;-69
2023/05/26 09:03:28;;;;;;;3.80;3.50;;;19.90;68.10;;;;;;5029323;28;20184;-67
2023/05/26 09:05:55;;;;;;;4.05;3.60;;;19.90;68.00;;;;;;5011643;28;20180;-68
2023/05/26 09:08:21;;;;;;;4.03;3.72;;;19.90;68.00;;;;;;4995809;28;20619;-69
2023/05/26 09:10:47;;;;;;;4.47;3.67;;;19.90;67.90;;;;;;4995073;28;20192;-69
2023/05/26 09:13:15;;;;;;;3.67;3.33;;;19.90;68.00;;;;;;5012361;28;20652;-67
2023/05/26 09:15:40;;;;;;;4.70;4.20;;;19.90;68.00;;;;;;5012045;28;20180;-69
2023/05/26 09:18:12;;;;;;;4.32;3.80;;;19.90;68.00;;;;;;5033428;28;20217;-68
2023/05/26 09:20:44;;;;;;;3.75;3.45;;;19.90;67.90;;;;;;4998071;28;20184;-68
2023/05/26 09:23:11;;;;;;;4.07;3.70;;;19.90;67.90;;;;;;4995869;28;20188;-66
2023/05/26 09:25:40;;;;;;;3.72;3.40;;;19.90;68.00;;;;;;5011933;28;20192;-67
2023/05/26 09:28:12;;;;;;;4.35;3.90;;;19.90;68.30;;;;;;4992428;28;20200;-68
2023/05/26 09:30:44;;;;;;;4.43;4.03;;;19.90;68.10;;;;;;4993758;28;20241;-68
2023/05/26 09:33:16;;;;;;;4.80;4.00;;;19.90;68.00;;;;;;4995710;28;20323;-68
2023/05/26 09:35:49;;;;;;;4.50;3.90;;;19.90;68.20;;;;;;4993834;28;20189;-69
2023/05/26 09:38:17;;;;;;;4.30;3.90;;;19.90;68.10;;;;;;5003778;28;20184;-68
2023/05/26 09:40:48;;;;;;;4.18;3.80;;;19.90;68.10;;;;;;5011932;28;20192;-67
2023/05/26 09:43:18;;;;;;;3.90;3.55;;;19.90;68.20;;;;;;4995843;28;20196;-68
2023/05/26 09:45:44;;;;;;;3.72;3.30;;;19.90;68.30;;;;;;4993951;28;20201;-68
2023/05/26 09:48:10;;;;;;;4.43;3.70;;;19.90;68.30;;;;;;5016631;28;20678;-68
2023/05/26 09:50:38;;;;;;;3.65;3.35;;;19.90;68.40;;;;;;4998084;28;20192;-69
2023/05/26 09:53:10;;;;;;;4.63;3.75;;;19.90;68.30;;;;;;5011965;28;20218;-68
2023/05/26 09:55:39;;;;;;;3.90;3.60;;;20.00;68.50;;;;;;5011480;28;20187;-67
2023/05/26 09:58:08;;;;;;;3.88;3.47;;;20.00;69.00;;;;;;4995097;28;20212;-68
2023/05/26 10:00:38;;;;;;;5.75;4.35;;;19.90;68.80;;;;;;4992198;28;20181;-68
2023/05/26 10:03:06;;;;;;;3.78;3.47;;;19.90;68.90;;;;;;5011649;28;20291;-68
2023/05/26 10:05:40;;;;;;;6.43;4.43;;;20.00;68.80;;;;;;5011736;28;20184;-68
2023/05/26 10:08:08;;;;;;;7.95;4.30;;;20.10;70.40;;;;;;5011674;28;20664;-67
2023/05/26 10:10:34;;;;;;;8.23;4.45;;;20.20;70.80;;;;;;4995421;28;20192;-68
2023/05/26 10:13:02;;;;;;;8.35;4.47;;;20.10;70.60;;;;;;4991922;28;20208;-68
2023/05/26 10:15:28;;;;;;;7.60;4.50;;;20.10;70.80;;;;;;4983945;28;20645;-67
2023/05/26 10:17:56;;;;;;;8.68;4.43;;;20.10;71.00;;;;;;5028315;28;20212;-68
2023/05/26 10:20:22;;;;;;;6.15;4.63;;;20.00;71.00;;;;;;5044343;28;20190;-68
2023/05/26 10:23:16;;;;;;;7.22;5.22;;;20.00;71.00;;;;;;5010875;28;20192;-68
2023/05/26 10:26:08;;;;;;;6.40;4.15;;;20.00;72.00;;;;;;5026024;28;20279;-67
2023/05/26 10:29:00;;;;;;;6.35;4.72;;;20.00;71.00;;;;;;5001387;28;20202;-66
2023/05/26 10:31:31;;;;;;;5.55;4.45;;;20.00;71.20;;;;;;5017579;28;20386;-68
2023/05/26 10:33:58;;;;;;;5.43;4.50;;;20.00;71.10;;;;;;5017692;28;20216;-67
2023/05/26 10:36:27;;;;;;;8.43;5.10;;;20.00;71.10;;;;;;5001498;28;20706;-69
2023/05/26 10:38:55;;;;;;;5.75;4.82;;;20.00;71.00;;;;;;5017617;28;20188;-69
2023/05/26 10:41:50;;;;;;;5.50;4.50;;;20.00;71.00;;;;;;5017759;28;20192;-68
2023/05/26 10:44:44;;;;;;;7.03;4.35;;;20.00;71.00;;;;;;4995317;28;20195;-68
2023/05/26 10:47:16;;;;;;;8.43;4.53;;;20.00;71.20;;;;;;5034033;28;20208;-68
2023/05/26 10:49:55;;;;;;;7.45;4.20;;;20.00;71.10;;;;;;5015831;28;20246;-68
2023/05/26 10:52:21;;;;;;;5.65;5.00;;;20.00;71.10;;;;;;4997933;28;20199;-67
2023/05/26 10:54:51;;;;;;;6.22;5.30;;;20.00;71.00;;;;;;4999200;28;20216;-67
2023/05/26 10:57:31;;;;;;;6.80;5.82;;;20.00;70.90;;;;;;5017100;28;20931;-68
2023/05/26 11:00:16;;;;;;;6.25;4.05;;;20.00;70.90;;;;;;5011442;28;20303;-66
2023/05/26 11:02:42;;;;;;;5.75;5.18;;;20.00;71.00;;;;;;5017143;28;20664;-67
2023/05/26 11:05:32;;;;;;;9.50;4.47;;;20.00;71.00;;;;;;5034111;28;20200;-68
2023/05/26 11:07:59;;;;;;;4.70;4.20;;;20.10;70.90;;;;;;5006189;28;20239;-68
2023/05/26 11:10:25;;;;;;;5.85;4.32;;;20.00;70.50;;;;;;5033757;28;20190;-68
2023/05/26 11:12:57;;;;;;;5.00;4.50;;;20.00;70.90;;;;;;5017520;28;20219;-67
2023/05/26 11:15:33;;;;;;;5.97;4.32;;;20.00;70.90;;;;;;5009141;28;20196;-67
2023/05/26 11:18:09;;;;;;;6.85;4.60;;;20.00;70.60;;;;;;5017127;28;20200;-68
2023/05/26 11:20:36;;;;;;;5.53;4.60;;;20.00;70.80;;;;;;5009049;28;20321;-66
2023/05/26 11:23:03;;;;;;;5.40;4.60;;;20.00;70.60;;;;;;5017389;28;20564;-68
2023/05/26 11:25:29;;;;;;;6.07;4.85;;;20.00;70.80;;;;;;5000843;28;20188;-67
2023/05/26 11:27:55;;;;;;;5.15;4.65;;;20.10;70.80;;;;;;4999084;28;20258;-68
2023/05/26 11:30:21;;;;;;;7.30;4.97;;;20.10;70.70;;;;;;4997094;28;20180;-68
2023/05/26 11:32:50;;;;;;;5.80;4.57;;;20.10;70.60;;;;;;4997754;28;20743;-67
2023/05/26 11:35:27;;;;;;;5.15;4.47;;;20.10;70.60;;;;;;5014017;28;20212;-67
2023/05/26 11:37:55;;;;;;;5.32;4.82;;;20.10;70.80;;;;;;4996174;28;20244;-67
2023/05/26 11:40:22;;;;;;;5.05;4.55;;;20.00;70.60;;;;;;5024043;28;20175;-67
2023/05/26 11:42:55;;;;;;;6.35;4.53;;;20.10;70.50;;;;;;5007768;28;20549;-67
2023/05/26 11:45:23;;;;;;;5.75;4.40;;;20.10;70.60;;;;;;5003921;28;20180;-67
2023/05/26 11:47:49;;;;;;;5.65;4.30;;;20.10;70.50;;;;;;4997397;28;20208;-67
2023/05/26 11:50:17;;;;;;;4.70;4.30;;;20.10;70.60;;;;;;4997183;28;20703;-67
2023/05/26 11:52:48;;;;;;;6.05;4.68;;;20.10;70.90;;;;;;4997031;28;20189;-68
2023/05/26 11:55:18;;;;;;;4.93;4.43;;;20.10;70.70;;;;;;4997274;28;20184;-67
2023/05/26 11:57:45;;;;;;;5.18;4.68;;;20.10;70.50;;;;;;5021303;28;20199;-67
2023/05/26 12:00:19;;;;;;;5.28;4.78;;;20.10;70.50;;;;;;5022009;28;20184;-68
2023/05/26 12:02:47;;;;;;;4.95;4.47;;;20.10;70.40;;;;;;5021288;28;20245;-66
2023/05/26 12:05:26;;;;;;;5.07;4.60;;;20.10;70.30;;;;;;4997188;28;20184;-67
2023/05/26 12:08:03;;;;;;;5.10;4.60;;;20.10;70.40;;;;;;5029582;28;20215;-67
2023/05/26 12:10:32;;;;;;;6.53;5.85;;;20.10;70.40;;;;;;5001690;28;20219;-67
2023/05/26 12:12:59;;;;;;;5.13;4.63;;;20.10;70.30;;;;;;5012491;28;20231;-68
2023/05/26 12:15:25;;;;;;;5.57;4.80;;;20.10;70.50;;;;;;4996842;28;20195;-67
2023/05/26 12:17:56;;;;;;;5.93;4.72;;;20.10;71.30;;;;;;5001280;28;20681;-67
2023/05/26 12:20:24;;;;;;;7.53;5.18;;;20.10;70.40;;;;;;4996994;28;20238;-66
2023/05/26 12:23:05;;;;;;;5.35;4.85;;;20.10;70.40;;;;;;4994546;28;20686;-67
2023/05/26 12:25:32;;;;;;;5.15;4.65;;;20.10;70.50;;;;;;5016361;28;20179;-67
2023/05/26 12:27:58;;;;;;;6.78;5.78;;;20.10;70.30;;;;;;4996471;28;20232;-65
2023/05/26 12:30:27;;;;;;;7.40;6.70;;;20.10;70.30;;;;;;5029366;28;20203;-66
2023/05/26 12:32:54;;;;;;;6.63;5.88;;;20.10;70.10;;;;;;5012735;28;20188;-68
2023/05/26 12:35:19;;;;;;;7.00;5.97;;;20.10;70.30;;;;;;5012772;28;20275;-67
2023/05/26 12:37:45;;;;;;;7.63;6.55;;;20.10;70.30;;;;;;5020500;28;20286;-68
2023/05/26 12:40:13;;;;;;;5.75;5.20;;;20.10;70.00;;;;;;5025079;28;20196;-68
2023/05/26 12:42:39;;;;;;;6.03;5.43;;;20.10;70.20;;;;;;4993097;28;20279;-68
2023/05/26 12:45:06;;;;;;;6.18;5.57;;;20.10;70.10;;;;;;5004158;28;20267;-69
2023/05/26 12:47:33;;;;;;;6.22;5.07;;;20.10;70.30;;;;;;5012813;28;20274;-67
2023/05/26 12:49:59;;;;;;;6.32;4.97;;;20.10;70.20;;;;;;5012982;28;20192;-68
2023/05/26 12:52:24;;;;;;;8.07;5.10;;;20.10;70.20;;;;;;4996262;28;20212;-67
2023/05/26 12:54:50;;;;;;;5.57;5.07;;;20.10;70.10;;;;;;4993562;28;20252;-68
2023/05/26 12:57:18;;;;;;;6.18;5.57;;;20.10;70.00;;;;;;5016916;28;20203;-68